This is the latest recevied weather packets stored in our database for station/object K1BWE-1. If no packets are shown the sender has not sent any weather packets the latest 10 day(s).
| Time | Temp. | Humidity | Pressure | Rain* | Wind** | Luminosity | Snow |
|---|---|---|---|---|---|---|---|
| 1778024445 | 22.78° C | 33% | 1011.5 hPa | 0 mm | - | 356 W/m² | - |
| 1778024143 | 22.22° C | 32% | 1011.3 hPa | 0 mm | - | 384 W/m² | - |
| 1778023840 | 22.78° C | 33% | 1011.4 hPa | 0 mm | - | 424 W/m² | - |
| 1778023538 | 22.78° C | 31% | 1011.6 hPa | 0 mm | - | 476 W/m² | - |
| 1778023235 | 22.78° C | 31% | 1011.4 hPa | 0 mm | - | 484 W/m² | - |
| 1778022931 | 22.22° C | 32% | 1011.7 hPa | 0 mm | - | 456 W/m² | - |
| 1778022630 | 22.22° C | 32% | 1011.6 hPa | 0 mm | - | 127 W/m² | - |
| 1778022327 | 22.78° C | 31% | 1011.4 hPa | 0 mm | - | 552 W/m² | - |
| 1778022024 | 22.78° C | 32% | 1011.4 hPa | 0 mm | - | 547 W/m² | - |
| 1778021721 | 22.78° C | 32% | 1011.7 hPa | 0 mm | - | 532 W/m² | - |
| 1778021416 | 22.78° C | 33% | 1011.6 hPa | 0 mm | - | 542 W/m² | - |
| 1778021114 | 22.78° C | 33% | 1011.7 hPa | 0 mm | - | 570 W/m² | - |
| 1778020811 | 22.22° C | 33% | 1011.6 hPa | 0 mm | - | 589 W/m² | - |
| 1778020508 | 21.67° C | 34% | 1011.6 hPa | 0 mm | - | 651 W/m² | - |
| 1778020204 | 21.67° C | 34% | 1011.8 hPa | 0 mm | - | 642 W/m² | - |
| 1778019901 | 21.67° C | 35% | 1011.8 hPa | 0 mm | - | 441 W/m² | - |
| 1778019596 | 22.78° C | 35% | 1011.9 hPa | 0 mm | - | 564 W/m² | - |
| 1778019294 | 21.67° C | 36% | 1011.8 hPa | 0 mm | - | 694 W/m² | - |
| 1778018991 | 22.22° C | 34% | 1011.8 hPa | 0 mm | - | 199 W/m² | - |
| 1778018688 | 21.11° C | 37% | 1012 hPa | 0 mm | - | 291 W/m² | - |
| 1778018385 | 22.78° C | 36% | 1012 hPa | 0 mm | - | 666 W/m² | - |
| 1778018083 | 23.33° C | 35% | 1012.4 hPa | 0 mm | - | 661 W/m² | - |
| 1778017781 | 22.78° C | 35% | 1012.1 hPa | 0 mm | - | 622 W/m² | - |
| 1778017478 | 22.22° C | 37% | 1012.2 hPa | 0 mm | - | 746 W/m² | - |
| 1778017176 | 22.78° C | 36% | 1012.7 hPa | 0 mm | - | 751 W/m² | - |
* Rain latest hour (hover to see other rain measurements)
** Current wind speed in m/s (hover to see current wind gust speed)